createdAt,value
2024-01-25T00:00:17.339Z,95.76
2024-01-25T00:03:06.030Z,95.63
2024-01-25T00:05:34.270Z,95.49
2024-01-25T00:08:02.290Z,95.74
2024-01-25T00:10:30.073Z,95.87
2024-01-25T00:12:58.559Z,96.12
2024-01-25T00:15:26.368Z,96.35
2024-01-25T00:17:55.038Z,96.70
2024-01-25T00:20:23.152Z,96.79
2024-01-25T00:22:51.557Z,97.20
2024-01-25T00:25:19.487Z,97.60
2024-01-25T00:27:48.970Z,97.36
2024-01-25T00:30:16.817Z,97.35
2024-01-25T00:32:45.271Z,97.66
2024-01-25T00:35:15.829Z,97.65
2024-01-25T00:37:44.140Z,97.86
2024-01-25T00:40:14.939Z,97.71
2024-01-25T00:42:54.596Z,98.05
2024-01-25T00:45:24.082Z,98.14
2024-01-25T00:47:52.437Z,98.26
2024-01-25T00:50:26.974Z,97.60
2024-01-25T00:52:55.656Z,97.80
2024-01-25T00:55:24.168Z,97.64
2024-01-25T00:57:53.276Z,97.58
2024-01-25T01:00:22.193Z,97.31
2024-01-25T01:02:50.386Z,97.04
2024-01-25T01:05:19.492Z,96.84
2024-01-25T01:07:48.144Z,96.61
2024-01-25T01:10:16.213Z,96.34
2024-01-25T01:12:44.471Z,96.32
2024-01-25T01:15:12.563Z,96.22
2024-01-25T01:17:40.423Z,96.13
2024-01-25T01:20:09.015Z,96.08
2024-01-25T01:22:37.374Z,96.34
2024-01-25T01:25:06.607Z,96.20
2024-01-25T01:27:34.624Z,96.10
2024-01-25T01:30:02.700Z,96.02
2024-01-25T01:32:30.436Z,96.15
2024-01-25T01:34:58.351Z,95.91
2024-01-25T01:37:26.410Z,95.71
2024-01-25T01:39:57.390Z,95.55
2024-01-25T01:42:25.279Z,95.57
2024-01-25T01:44:54.189Z,95.47
2024-01-25T01:47:22.663Z,95.06
2024-01-25T01:49:50.818Z,95.09
2024-01-25T01:52:19.909Z,94.83
2024-01-25T01:54:49.164Z,94.70
2024-01-25T01:57:17.611Z,94.61
2024-01-25T01:59:45.961Z,94.35
2024-01-25T02:02:13.856Z,94.22
2024-01-25T02:04:42.235Z,94.28
2024-01-25T02:07:10.446Z,94.26
2024-01-25T02:09:38.461Z,94.07
2024-01-25T02:12:08.544Z,94.05
2024-01-25T02:14:36.689Z,93.87
2024-01-25T02:17:05.485Z,93.21
2024-01-25T02:19:33.753Z,93.00
2024-01-25T02:22:05.451Z,93.02
2024-01-25T02:24:33.753Z,92.88
2024-01-25T02:27:02.036Z,92.92
2024-01-25T02:29:29.996Z,92.98
2024-01-25T02:31:57.763Z,92.86
2024-01-25T02:34:25.529Z,92.77
2024-01-25T02:36:53.462Z,92.68
2024-01-25T02:39:21.382Z,92.79
2024-01-25T02:41:49.068Z,92.82
2024-01-25T02:44:17.944Z,92.61
2024-01-25T02:46:46.006Z,92.89
2024-01-25T02:49:13.940Z,93.24
2024-01-25T02:51:41.948Z,93.23
2024-01-25T02:54:09.800Z,93.38
2024-01-25T02:56:37.624Z,93.53
2024-01-25T02:59:05.316Z,93.44
2024-01-25T03:01:43.303Z,93.71
2024-01-25T03:04:12.541Z,94.06
2024-01-25T03:06:41.627Z,93.86
2024-01-25T03:09:09.563Z,93.87
2024-01-25T03:11:37.346Z,93.71
2024-01-25T03:14:05.397Z,93.97
2024-01-25T03:16:33.237Z,93.75
2024-01-25T03:19:01.141Z,94.00
2024-01-25T03:21:30.401Z,94.16
2024-01-25T03:23:58.310Z,94.10
2024-01-25T03:26:28.472Z,94.46
2024-01-25T03:28:56.288Z,94.45
2024-01-25T03:31:24.075Z,94.60
2024-01-25T03:33:52.010Z,94.69
2024-01-25T03:36:19.961Z,94.41
2024-01-25T03:38:47.670Z,94.49
2024-01-25T03:41:15.429Z,94.57
2024-01-25T03:43:44.819Z,94.70
2024-01-25T03:46:13.338Z,94.76
2024-01-25T03:48:41.477Z,94.98
2024-01-25T03:51:09.971Z,95.63
2024-01-25T03:53:38.719Z,95.16
2024-01-25T03:56:13.325Z,95.37
2024-01-25T03:58:41.175Z,95.45
2024-01-25T04:01:09.201Z,95.54
2024-01-25T04:03:37.757Z,95.64
2024-01-25T04:06:05.995Z,95.81
2024-01-25T04:08:33.913Z,95.94
2024-01-25T04:11:01.647Z,96.14
2024-01-25T04:13:30.022Z,95.94
2024-01-25T04:15:57.927Z,95.84
2024-01-25T04:18:25.788Z,95.86
2024-01-25T04:20:53.669Z,95.87
2024-01-25T04:23:21.379Z,95.69
2024-01-25T04:25:50.107Z,95.36
2024-01-25T04:28:17.959Z,95.57
2024-01-25T04:30:45.899Z,95.81
2024-01-25T04:33:13.742Z,95.94
2024-01-25T04:35:41.650Z,96.09
2024-01-25T04:38:09.681Z,96.16
2024-01-25T04:40:37.832Z,96.08
2024-01-25T04:43:05.803Z,96.03
2024-01-25T04:45:34.041Z,96.41
2024-01-25T04:48:02.128Z,96.39
2024-01-25T04:50:30.135Z,96.86
2024-01-25T04:52:58.276Z,97.19
2024-01-25T04:55:26.485Z,96.97
2024-01-25T04:57:54.756Z,96.98
2024-01-25T05:00:23.815Z,97.16
2024-01-25T05:02:51.588Z,97.00
2024-01-25T05:05:19.654Z,97.17
2024-01-25T05:07:47.606Z,96.95
2024-01-25T05:10:15.529Z,96.90
2024-01-25T05:12:43.555Z,96.75
2024-01-25T05:15:11.767Z,96.86
2024-01-25T05:17:40.871Z,96.34
2024-01-25T05:20:10.034Z,96.34
2024-01-25T05:22:41.428Z,96.44
2024-01-25T05:25:09.633Z,96.22
2024-01-25T05:27:37.452Z,96.07
2024-01-25T05:30:06.282Z,96.03
2024-01-25T05:32:35.439Z,96.00
2024-01-25T05:35:05.010Z,96.25
2024-01-25T05:37:34.810Z,95.72
2024-01-25T05:40:02.655Z,95.75
2024-01-25T05:42:30.508Z,95.43
2024-01-25T05:44:58.441Z,95.47
2024-01-25T05:47:26.675Z,95.42
2024-01-25T05:49:54.977Z,95.32
2024-01-25T05:52:23.351Z,95.01
2024-01-25T05:54:51.717Z,94.98
2024-01-25T05:57:20.529Z,94.78
2024-01-25T05:59:48.696Z,94.61
2024-01-25T06:02:16.890Z,94.63
2024-01-25T06:04:46.107Z,94.80
2024-01-25T06:07:15.057Z,95.09
2024-01-25T06:09:43.213Z,94.68
2024-01-25T06:12:11.479Z,94.58
2024-01-25T06:14:39.387Z,94.51
2024-01-25T06:17:09.001Z,94.28
2024-01-25T06:19:37.036Z,94.19
2024-01-25T06:22:05.048Z,94.27
2024-01-25T06:24:33.428Z,94.09
2024-01-25T06:27:01.958Z,94.19
2024-01-25T06:29:29.641Z,94.03
2024-01-25T06:31:58.513Z,93.86
2024-01-25T06:34:27.566Z,93.86
2024-01-25T06:36:56.043Z,94.00
2024-01-25T06:39:23.998Z,94.12
2024-01-25T06:41:51.868Z,94.02
2024-01-25T06:44:20.270Z,93.94
2024-01-25T06:46:48.049Z,94.23
2024-01-25T06:49:15.944Z,94.26
2024-01-25T06:51:44.003Z,94.30
2024-01-25T06:54:13.059Z,94.44
2024-01-25T06:56:41.151Z,94.73
2024-01-25T06:59:08.861Z,95.05
2024-01-25T07:01:37.798Z,95.44
2024-01-25T07:04:06.238Z,95.69
2024-01-25T07:06:37.257Z,95.99
2024-01-25T07:09:05.980Z,96.27
2024-01-25T07:11:33.923Z,96.54
2024-01-25T07:14:01.607Z,97.42
2024-01-25T07:16:31.556Z,97.38
2024-01-25T07:18:59.462Z,97.37
2024-01-25T07:21:27.786Z,98.17
2024-01-25T07:23:55.495Z,98.31
2024-01-25T07:26:23.640Z,98.60
2024-01-25T07:28:55.013Z,98.03
2024-01-25T07:31:22.903Z,98.54
2024-01-25T07:33:50.778Z,98.26
2024-01-25T07:36:19.782Z,98.92
2024-01-25T07:38:48.152Z,99.99
2024-01-25T07:41:16.665Z,99.58
2024-01-25T07:43:44.585Z,99.36
2024-01-25T07:46:12.551Z,99.44
2024-01-25T07:48:41.189Z,99.14
2024-01-25T07:51:14.465Z,98.97
2024-01-25T07:53:42.669Z,99.69
2024-01-25T07:56:12.026Z,99.39
2024-01-25T07:58:41.959Z,99.55
2024-01-25T08:01:10.707Z,99.84
2024-01-25T08:03:38.813Z,99.90
2024-01-25T08:06:07.297Z,99.48
2024-01-25T08:08:35.174Z,99.39
2024-01-25T08:11:03.209Z,99.42
2024-01-25T08:13:35.474Z,99.59
2024-01-25T08:16:03.947Z,99.83
2024-01-25T08:18:32.426Z,99.60
2024-01-25T08:21:02.205Z,99.71
2024-01-25T08:23:30.161Z,99.89
2024-01-25T08:25:58.001Z,99.81
2024-01-25T08:28:26.712Z,99.83
2024-01-25T08:30:54.704Z,100.00
2024-01-25T08:33:22.684Z,100.00
2024-01-25T08:35:50.663Z,99.94
2024-01-25T08:38:18.449Z,100.00
2024-01-25T08:40:46.262Z,100.00
2024-01-25T08:43:16.571Z,100.00
2024-01-25T08:45:44.949Z,100.00
2024-01-25T08:48:14.812Z,100.00
2024-01-25T08:50:42.828Z,100.00
2024-01-25T08:53:11.028Z,100.00
2024-01-25T08:55:38.827Z,100.00
2024-01-25T08:58:07.074Z,100.00
2024-01-25T09:00:35.038Z,100.00
2024-01-25T09:03:02.914Z,100.00
2024-01-25T09:05:32.808Z,100.00
2024-01-25T09:08:00.892Z,100.00
2024-01-25T09:10:29.039Z,100.00
2024-01-25T09:12:56.860Z,100.00
2024-01-25T09:15:24.640Z,100.00
2024-01-25T09:17:52.432Z,100.00
2024-01-25T09:20:20.380Z,100.00
2024-01-25T09:22:48.269Z,100.00
2024-01-25T09:25:16.889Z,100.00
2024-01-25T09:27:45.102Z,100.00
2024-01-25T09:30:13.698Z,100.00
2024-01-25T09:32:41.728Z,100.00
2024-01-25T09:35:09.770Z,100.00
2024-01-25T09:37:37.968Z,100.00
2024-01-25T09:40:07.349Z,100.00
2024-01-25T09:42:37.170Z,100.00
2024-01-25T09:45:08.330Z,100.00
2024-01-25T09:47:36.209Z,100.00
2024-01-25T09:50:06.314Z,100.00
2024-01-25T09:52:35.725Z,100.00
2024-01-25T09:55:07.903Z,100.00
2024-01-25T09:57:40.883Z,100.00
2024-01-25T10:00:13.086Z,100.00
2024-01-25T10:02:41.417Z,100.00
2024-01-25T10:05:09.551Z,100.00
2024-01-25T10:07:42.791Z,100.00
2024-01-25T10:10:12.177Z,100.00
2024-01-25T10:12:42.097Z,100.00
2024-01-25T10:15:11.612Z,100.00
2024-01-25T10:17:58.802Z,100.00
2024-01-25T10:20:32.676Z,100.00
2024-01-25T10:23:01.778Z,100.00
2024-01-25T10:25:30.462Z,100.00
2024-01-25T10:27:59.159Z,100.00
2024-01-25T10:30:28.539Z,100.00
2024-01-25T10:32:57.291Z,100.00
2024-01-25T10:35:27.755Z,100.00
2024-01-25T10:37:56.293Z,100.00
2024-01-25T10:40:24.538Z,100.00
2024-01-25T10:42:53.273Z,100.00
2024-01-25T10:45:21.489Z,100.00
2024-01-25T10:47:50.487Z,100.00
2024-01-25T10:50:18.801Z,100.00
2024-01-25T10:52:47.652Z,100.00
2024-01-25T10:55:17.717Z,100.00
2024-01-25T10:57:47.243Z,100.00
2024-01-25T11:00:17.597Z,100.00
2024-01-25T11:02:50.931Z,100.00
2024-01-25T11:05:22.939Z,100.00
2024-01-25T11:07:52.624Z,100.00
2024-01-25T11:10:22.384Z,100.00
2024-01-25T11:12:50.342Z,100.00
2024-01-25T11:15:20.934Z,100.00
2024-01-25T11:17:54.029Z,100.00
2024-01-25T11:20:24.542Z,100.00
2024-01-25T11:22:57.614Z,100.00
2024-01-25T11:25:31.832Z,100.00
2024-01-25T11:28:04.714Z,100.00
2024-01-25T11:30:36.634Z,100.00
2024-01-25T11:33:09.238Z,100.00
2024-01-25T11:35:37.724Z,100.00
2024-01-25T11:38:05.660Z,100.00
2024-01-25T11:40:37.491Z,100.00
2024-01-25T11:43:12.479Z,100.00
2024-01-25T11:45:44.606Z,100.00
2024-01-25T11:48:13.316Z,100.00
2024-01-25T11:50:41.711Z,100.00
2024-01-25T11:53:10.891Z,100.00
2024-01-25T11:55:38.764Z,100.00
2024-01-25T11:58:07.659Z,100.00
2024-01-25T12:00:36.200Z,100.00
2024-01-25T12:03:04.984Z,100.00
2024-01-25T12:05:33.254Z,100.00
2024-01-25T12:08:01.594Z,100.00
2024-01-25T12:10:30.025Z,100.00
2024-01-25T12:12:58.063Z,100.00
2024-01-25T12:15:25.901Z,100.00
2024-01-25T12:17:55.254Z,100.00
2024-01-25T12:20:23.617Z,100.00
2024-01-25T12:22:51.989Z,100.00
2024-01-25T12:25:19.842Z,100.00
2024-01-25T12:27:51.603Z,100.00
2024-01-25T12:30:19.446Z,100.00
2024-01-25T12:32:50.970Z,100.00
2024-01-25T12:35:19.113Z,100.00
2024-01-25T12:37:46.965Z,100.00
2024-01-25T12:40:15.130Z,100.00
2024-01-25T12:42:43.224Z,100.00
2024-01-25T12:45:11.239Z,100.00
2024-01-25T12:47:39.089Z,100.00
2024-01-25T12:50:07.529Z,100.00
2024-01-25T12:52:35.400Z,100.00
2024-01-25T12:55:04.432Z,100.00
2024-01-25T12:57:33.131Z,100.00
2024-01-25T13:00:01.647Z,100.00
2024-01-25T13:02:30.436Z,100.00
2024-01-25T13:04:58.449Z,100.00
2024-01-25T13:07:26.456Z,100.00
2024-01-25T13:09:54.193Z,100.00
2024-01-25T13:12:22.989Z,100.00
2024-01-25T13:14:52.089Z,100.00
2024-01-25T13:17:22.448Z,100.00
2024-01-25T13:19:50.287Z,100.00
2024-01-25T13:22:22.273Z,100.00
2024-01-25T13:24:50.724Z,100.00
2024-01-25T13:27:18.872Z,100.00
2024-01-25T13:29:46.706Z,100.00
2024-01-25T13:32:14.425Z,100.00
2024-01-25T13:34:42.225Z,100.00
2024-01-25T13:37:10.112Z,100.00
2024-01-25T13:39:38.082Z,100.00
2024-01-25T13:42:06.297Z,100.00
2024-01-25T13:44:34.134Z,100.00
2024-01-25T13:47:02.909Z,100.00
2024-01-25T13:49:30.879Z,100.00
2024-01-25T13:52:01.841Z,100.00
2024-01-25T13:54:30.474Z,100.00
2024-01-25T13:56:58.435Z,100.00
2024-01-25T13:59:26.925Z,100.00
2024-01-25T14:01:54.896Z,100.00
2024-01-25T14:04:22.859Z,100.00
2024-01-25T14:06:51.545Z,100.00
2024-01-25T14:09:19.869Z,100.00
2024-01-25T14:11:47.860Z,100.00
2024-01-25T14:14:15.605Z,100.00
2024-01-25T14:16:43.478Z,100.00
2024-01-25T14:19:11.305Z,100.00
2024-01-25T14:21:39.460Z,100.00
2024-01-25T14:24:07.578Z,100.00
2024-01-25T14:26:35.319Z,100.00
2024-01-25T14:29:03.120Z,100.00
2024-01-25T14:31:30.929Z,100.00
2024-01-25T14:33:58.932Z,99.94
2024-01-25T14:36:26.952Z,99.51
2024-01-25T14:38:54.677Z,99.87
2024-01-25T14:41:22.558Z,99.88
2024-01-25T14:43:50.335Z,99.71
2024-01-25T14:46:19.194Z,99.84
2024-01-25T14:48:47.282Z,99.58
2024-01-25T14:51:15.356Z,99.91
2024-01-25T14:53:43.691Z,99.75
2024-01-25T14:56:13.610Z,99.45
2024-01-25T14:58:41.411Z,99.09
2024-01-25T15:01:09.151Z,98.69
2024-01-25T15:03:37.107Z,98.48
2024-01-25T15:06:05.299Z,98.61
2024-01-25T15:08:33.084Z,98.97
2024-01-25T15:11:01.203Z,99.04
2024-01-25T15:13:28.913Z,98.44
2024-01-25T15:15:56.941Z,98.36
2024-01-25T15:18:24.993Z,98.39
2024-01-25T15:20:54.281Z,98.36
2024-01-25T15:23:22.057Z,98.38
2024-01-25T15:25:51.067Z,98.73
2024-01-25T15:28:21.113Z,98.63
2024-01-25T15:30:49.393Z,98.37
2024-01-25T15:33:17.364Z,98.73
2024-01-25T15:35:45.351Z,98.78
2024-01-25T15:38:16.669Z,98.59
2024-01-25T15:40:45.147Z,98.50
2024-01-25T15:43:12.843Z,98.45
2024-01-25T15:45:40.584Z,98.28
2024-01-25T15:48:08.572Z,98.01
2024-01-25T15:50:36.348Z,97.62
2024-01-25T15:53:04.263Z,97.17
2024-01-25T15:55:32.303Z,96.09
2024-01-25T15:58:00.305Z,95.81
2024-01-25T16:00:28.383Z,95.08
2024-01-25T16:02:58.028Z,94.09
2024-01-25T16:05:26.797Z,93.47
2024-01-25T16:07:54.582Z,93.97
2024-01-25T16:10:22.534Z,93.51
2024-01-25T16:12:51.045Z,92.83
2024-01-25T16:15:19.721Z,93.10
2024-01-25T16:17:47.747Z,92.51
2024-01-25T16:20:17.863Z,92.09
2024-01-25T16:22:45.570Z,91.50
2024-01-25T16:25:13.616Z,91.64
2024-01-25T16:27:41.531Z,91.46
2024-01-25T16:30:10.041Z,91.51
2024-01-25T16:32:38.018Z,91.13
2024-01-25T16:35:06.379Z,90.80
2024-01-25T16:37:34.234Z,91.95
2024-01-25T16:40:02.103Z,90.89
2024-01-25T16:42:30.005Z,91.05
2024-01-25T16:44:57.814Z,91.10
2024-01-25T16:47:25.486Z,91.08
2024-01-25T16:49:53.333Z,91.48
2024-01-25T16:52:21.115Z,90.55
2024-01-25T16:54:49.197Z,91.60
2024-01-25T16:57:16.960Z,91.19
2024-01-25T16:59:44.761Z,91.21
2024-01-25T17:02:12.580Z,90.90
2024-01-25T17:04:40.495Z,90.49
2024-01-25T17:07:08.673Z,91.06
2024-01-25T17:09:36.572Z,90.95
2024-01-25T17:12:05.033Z,91.25
2024-01-25T17:14:32.746Z,91.05
2024-01-25T17:17:00.573Z,91.22
2024-01-25T17:19:28.853Z,90.92
2024-01-25T17:21:56.935Z,91.42
2024-01-25T17:24:24.847Z,91.34
2024-01-25T17:26:52.748Z,91.42
2024-01-25T17:29:20.749Z,91.15
2024-01-25T17:31:49.234Z,91.27
2024-01-25T17:34:17.653Z,91.29
2024-01-25T17:36:45.841Z,91.32
2024-01-25T17:39:14.987Z,91.34
2024-01-25T17:41:42.860Z,91.11
2024-01-25T17:44:12.955Z,91.39
2024-01-25T17:46:40.664Z,91.24
2024-01-25T17:49:09.335Z,91.62
2024-01-25T17:51:37.927Z,91.49
2024-01-25T17:54:05.862Z,91.94
2024-01-25T17:56:38.840Z,92.24
2024-01-25T17:59:08.265Z,92.21
2024-01-25T18:01:36.331Z,92.57
2024-01-25T18:04:04.487Z,92.29
2024-01-25T18:06:32.609Z,92.60
2024-01-25T18:09:00.406Z,92.52
2024-01-25T18:11:28.146Z,92.38
2024-01-25T18:13:56.984Z,91.84
2024-01-25T18:16:24.681Z,92.11
2024-01-25T18:18:52.603Z,91.68
2024-01-25T18:21:20.587Z,91.54
2024-01-25T18:23:48.772Z,91.40
2024-01-25T18:26:16.527Z,90.83
2024-01-25T18:28:44.228Z,90.42
2024-01-25T18:31:12.062Z,89.38
2024-01-25T18:33:39.926Z,89.43
2024-01-25T18:36:11.867Z,89.69
2024-01-25T18:38:40.665Z,90.06
2024-01-25T18:41:10.965Z,90.09
2024-01-25T18:43:39.217Z,90.76
2024-01-25T18:46:09.842Z,90.51
2024-01-25T18:48:37.774Z,90.69
2024-01-25T18:51:07.954Z,90.74
2024-01-25T18:53:36.672Z,90.93
2024-01-25T18:56:04.809Z,90.27
2024-01-25T18:58:33.020Z,89.95
2024-01-25T19:01:01.424Z,89.91
2024-01-25T19:03:29.528Z,89.66
2024-01-25T19:05:59.111Z,89.90
2024-01-25T19:08:28.356Z,89.47
2024-01-25T19:10:56.147Z,89.15
2024-01-25T19:13:24.838Z,88.90
2024-01-25T19:15:52.693Z,89.21
2024-01-25T19:18:20.931Z,89.16
2024-01-25T19:20:49.132Z,89.12
2024-01-25T19:23:17.030Z,89.35
2024-01-25T19:25:44.759Z,89.51
2024-01-25T19:28:15.050Z,88.96
2024-01-25T19:30:45.156Z,89.25
2024-01-25T19:33:13.291Z,88.78
2024-01-25T19:35:47.488Z,88.72
2024-01-25T19:38:15.282Z,88.53
2024-01-25T19:40:46.892Z,88.41
2024-01-25T19:43:14.696Z,88.16
2024-01-25T19:45:42.576Z,88.11
2024-01-25T19:48:10.436Z,87.65
2024-01-25T19:50:38.938Z,88.01
2024-01-25T19:53:07.893Z,88.31
2024-01-25T19:55:35.996Z,87.81
2024-01-25T19:58:05.464Z,87.52
2024-01-25T20:00:34.221Z,88.22
2024-01-25T20:03:02.429Z,87.71
2024-01-25T20:05:33.128Z,88.08
2024-01-25T20:08:01.282Z,87.70
2024-01-25T20:10:29.202Z,87.77
2024-01-25T20:12:58.217Z,87.62
2024-01-25T20:15:26.560Z,88.00
2024-01-25T20:17:54.458Z,88.17
2024-01-25T20:20:30.932Z,87.93
2024-01-25T20:23:06.190Z,87.56
2024-01-25T20:25:33.977Z,87.72
2024-01-25T20:28:01.909Z,87.96
2024-01-25T20:30:34.735Z,88.13
2024-01-25T20:33:02.669Z,87.90
2024-01-25T20:35:30.678Z,87.33
2024-01-25T20:37:58.468Z,87.02
2024-01-25T20:40:26.307Z,87.46
2024-01-25T20:42:54.035Z,87.45
2024-01-25T20:45:23.423Z,87.55
2024-01-25T20:47:51.686Z,87.44
2024-01-25T20:50:26.269Z,86.82
2024-01-25T20:53:02.318Z,86.95
2024-01-25T20:55:30.174Z,87.32
2024-01-25T20:57:58.390Z,87.21
2024-01-25T21:00:26.331Z,87.23
2024-01-25T21:02:54.573Z,86.60
2024-01-25T21:05:23.163Z,86.32
2024-01-25T21:07:51.658Z,86.56
2024-01-25T21:10:21.007Z,86.40
2024-01-25T21:12:49.372Z,86.00
2024-01-25T21:15:17.570Z,85.66
2024-01-25T21:17:45.437Z,85.54
2024-01-25T21:20:13.390Z,85.10
2024-01-25T21:22:41.099Z,84.49
2024-01-25T21:25:11.781Z,84.00
2024-01-25T21:27:40.044Z,84.41
2024-01-25T21:30:09.074Z,84.36
2024-01-25T21:32:36.818Z,84.12
2024-01-25T21:35:06.518Z,84.68
2024-01-25T21:37:35.684Z,84.31
2024-01-25T21:40:04.511Z,84.81
2024-01-25T21:42:38.260Z,84.36
2024-01-25T21:45:10.093Z,84.41
2024-01-25T21:47:39.965Z,84.42
2024-01-25T21:50:10.201Z,84.39
2024-01-25T21:52:38.236Z,84.10
2024-01-25T21:55:11.440Z,84.23
2024-01-25T21:57:45.751Z,83.94
2024-01-25T22:00:14.936Z,83.79
2024-01-25T22:02:46.468Z,83.62
2024-01-25T22:05:15.791Z,83.91
2024-01-25T22:07:44.096Z,83.98
2024-01-25T22:10:11.940Z,83.93
2024-01-25T22:12:39.693Z,83.95
2024-01-25T22:15:08.106Z,83.77
2024-01-25T22:17:36.025Z,83.63
2024-01-25T22:20:04.478Z,83.93
2024-01-25T22:22:32.234Z,83.97
2024-01-25T22:25:00.942Z,84.04
2024-01-25T22:27:28.843Z,83.80
2024-01-25T22:29:58.671Z,83.80
2024-01-25T22:32:26.476Z,84.17
2024-01-25T22:34:54.416Z,83.88
2024-01-25T22:37:22.527Z,84.06
2024-01-25T22:39:50.280Z,83.89
2024-01-25T22:42:18.070Z,83.87
2024-01-25T22:44:45.859Z,83.91
2024-01-25T22:47:13.645Z,83.39
2024-01-25T22:49:41.543Z,83.71
2024-01-25T22:52:09.265Z,83.33
2024-01-25T22:54:39.322Z,83.09
2024-01-25T22:57:07.212Z,83.22
2024-01-25T22:59:35.191Z,83.61
2024-01-25T23:02:02.973Z,83.10
2024-01-25T23:04:30.704Z,83.32
2024-01-25T23:06:58.476Z,83.32
2024-01-25T23:09:26.656Z,83.65
2024-01-25T23:11:54.712Z,83.94
2024-01-25T23:14:23.241Z,82.73
2024-01-25T23:16:50.974Z,82.98
2024-01-25T23:19:20.783Z,82.42
2024-01-25T23:21:49.199Z,82.82
2024-01-25T23:24:16.943Z,82.94
2024-01-25T23:26:44.788Z,83.03
2024-01-25T23:29:13.858Z,82.55
2024-01-25T23:31:41.591Z,82.65
2024-01-25T23:34:10.225Z,82.65
2024-01-25T23:36:38.053Z,82.40
2024-01-25T23:39:06.188Z,82.73
2024-01-25T23:41:34.528Z,82.76
2024-01-25T23:44:02.422Z,82.47
2024-01-25T23:46:30.348Z,82.53
2024-01-25T23:48:59.027Z,82.48
2024-01-25T23:51:27.231Z,82.38
2024-01-25T23:53:55.388Z,82.95
2024-01-25T23:56:23.746Z,83.01
2024-01-25T23:58:51.492Z,82.35
